Terminal Aerodrome Forecast
Issued by NWS Twin Cities, MN

Home | Current Version | Previous Version | Text Only | Print | Product List | Glossary Off
Versions: 1 2 3 4 5 6 7 8 9 10 11 12 13 14 15 16 17 18 19 20 21 22 23 24

000
FTUS43 KMPX 291700
TAFEAU
TAF
KEAU 291736Z 2918/3018 02011KT P6SM BKN018 OVC035
     FM292200 03010KT P6SM SCT025 BKN035
     FM300000 04007KT P6SM SCT025
     FM300700 07003KT 4SM BR SCT008
     FM301000 VRB02KT 2SM BR OVC005
     FM301400 10006KT P6SM BKN015=

USA.gov is the U.S. government's official web portal to all federal, state and local government web resources and services.